sensor_id;sensor_type;location;lat;lon;timestamp;pressure;altitude;pressure_sealevel;temperature;humidity
49040;BME280;36811;49.732;13.402;2023-02-04T00:01:55;98151.88;;;5.95;65.96
49040;BME280;36811;49.732;13.402;2023-02-04T00:04:21;98152.53;;;5.90;66.51
49040;BME280;36811;49.732;13.402;2023-02-04T00:06:46;98157.25;;;5.88;66.94
49040;BME280;36811;49.732;13.402;2023-02-04T00:09:12;98149.56;;;5.87;66.93
49040;BME280;36811;49.732;13.402;2023-02-04T00:11:38;98127.44;;;5.81;66.39
49040;BME280;36811;49.732;13.402;2023-02-04T00:14:03;98164.22;;;5.76;66.66
49040;BME280;36811;49.732;13.402;2023-02-04T00:16:29;98163.00;;;5.72;66.72
49040;BME280;36811;49.732;13.402;2023-02-04T00:18:54;98169.16;;;5.66;67.48
49040;BME280;36811;49.732;13.402;2023-02-04T00:21:20;98176.03;;;5.67;66.97
49040;BME280;36811;49.732;13.402;2023-02-04T00:23:45;98182.56;;;5.64;67.54
49040;BME280;36811;49.732;13.402;2023-02-04T00:26:11;98179.41;;;5.56;67.60
49040;BME280;36811;49.732;13.402;2023-02-04T00:28:37;98178.19;;;5.52;67.58
49040;BME280;36811;49.732;13.402;2023-02-04T00:31:02;98183.44;;;5.58;67.34
49040;BME280;36811;49.732;13.402;2023-02-04T00:33:28;98170.59;;;5.62;67.14
49040;BME280;36811;49.732;13.402;2023-02-04T00:35:54;98185.66;;;5.61;66.94
49040;BME280;36811;49.732;13.402;2023-02-04T00:38:20;98197.44;;;5.59;67.36
49040;BME280;36811;49.732;13.402;2023-02-04T00:40:47;98196.78;;;5.63;67.26
49040;BME280;36811;49.732;13.402;2023-02-04T00:43:13;98202.72;;;5.59;67.42
49040;BME280;36811;49.732;13.402;2023-02-04T00:45:38;98214.69;;;5.55;67.91
49040;BME280;36811;49.732;13.402;2023-02-04T00:48:04;98203.72;;;5.58;67.77
49040;BME280;36811;49.732;13.402;2023-02-04T00:50:30;98211.41;;;5.59;67.41
49040;BME280;36811;49.732;13.402;2023-02-04T00:52:55;98211.41;;;5.66;67.01
49040;BME280;36811;49.732;13.402;2023-02-04T00:55:21;98220.13;;;5.66;66.63
49040;BME280;36811;49.732;13.402;2023-02-04T00:57:47;98224.75;;;5.71;66.64
49040;BME280;36811;49.732;13.402;2023-02-04T01:00:14;98225.34;;;5.73;67.07
49040;BME280;36811;49.732;13.402;2023-02-04T01:02:40;98226.75;;;5.75;66.86
49040;BME280;36811;49.732;13.402;2023-02-04T01:05:09;98224.34;;;5.74;67.08
49040;BME280;36811;49.732;13.402;2023-02-04T01:07:35;98228.31;;;5.83;66.48
49040;BME280;36811;49.732;13.402;2023-02-04T01:10:01;98245.78;;;5.84;66.56
49040;BME280;36811;49.732;13.402;2023-02-04T01:12:26;98236.84;;;5.85;66.45
49040;BME280;36811;49.732;13.402;2023-02-04T01:14:54;98248.81;;;5.88;66.80
49040;BME280;36811;49.732;13.402;2023-02-04T01:17:20;98249.63;;;5.88;66.99
49040;BME280;36811;49.732;13.402;2023-02-04T01:19:46;98260.19;;;5.88;67.07
49040;BME280;36811;49.732;13.402;2023-02-04T01:22:13;98265.25;;;5.90;66.73
49040;BME280;36811;49.732;13.402;2023-02-04T01:24:38;98271.34;;;5.90;66.79
49040;BME280;36811;49.732;13.402;2023-02-04T01:27:04;98287.19;;;5.90;67.00
49040;BME280;36811;49.732;13.402;2023-02-04T01:29:30;98270.13;;;5.93;66.99
49040;BME280;36811;49.732;13.402;2023-02-04T01:31:56;98279.06;;;5.92;66.83
49040;BME280;36811;49.732;13.402;2023-02-04T01:34:21;98292.28;;;5.92;66.88
49040;BME280;36811;49.732;13.402;2023-02-04T01:36:47;98293.69;;;5.88;67.26
49040;BME280;36811;49.732;13.402;2023-02-04T01:39:13;98292.47;;;5.90;67.30
49040;BME280;36811;49.732;13.402;2023-02-04T01:41:39;98297.16;;;5.88;67.30
49040;BME280;36811;49.732;13.402;2023-02-04T01:44:05;98286.81;;;5.87;67.85
49040;BME280;36811;49.732;13.402;2023-02-04T01:46:31;98299.81;;;5.82;67.86
49040;BME280;36811;49.732;13.402;2023-02-04T01:49:00;98308.75;;;5.81;68.18
49040;BME280;36811;49.732;13.402;2023-02-04T01:51:27;98296.78;;;5.78;67.75
49040;BME280;36811;49.732;13.402;2023-02-04T01:53:55;98309.75;;;5.79;68.39
49040;BME280;36811;49.732;13.402;2023-02-04T01:56:22;98293.13;;;5.79;68.04
49040;BME280;36811;49.732;13.402;2023-02-04T01:58:52;98299.19;;;5.79;68.56
49040;BME280;36811;49.732;13.402;2023-02-04T02:01:37;98319.53;;;5.79;68.36
49040;BME280;36811;49.732;13.402;2023-02-04T02:04:05;98318.91;;;5.77;68.71
49040;BME280;36811;49.732;13.402;2023-02-04T02:06:31;98318.72;;;5.78;68.59
49040;BME280;36811;49.732;13.402;2023-02-04T02:08:57;98321.78;;;5.75;69.12
49040;BME280;36811;49.732;13.402;2023-02-04T02:11:24;98325.41;;;5.74;69.12
49040;BME280;36811;49.732;13.402;2023-02-04T02:13:51;98333.56;;;5.73;69.39
49040;BME280;36811;49.732;13.402;2023-02-04T02:16:17;98340.28;;;5.69;69.93
49040;BME280;36811;49.732;13.402;2023-02-04T02:18:42;98344.56;;;5.63;69.83
49040;BME280;36811;49.732;13.402;2023-02-04T02:21:11;98369.94;;;5.64;69.84
49040;BME280;36811;49.732;13.402;2023-02-04T02:23:53;98377.84;;;5.64;70.27
49040;BME280;36811;49.732;13.402;2023-02-04T02:26:22;98378.66;;;5.65;70.50
49040;BME280;36811;49.732;13.402;2023-02-04T02:28:49;98389.63;;;5.62;70.73
49040;BME280;36811;49.732;13.402;2023-02-04T02:31:18;98392.47;;;5.60;70.72
49040;BME280;36811;49.732;13.402;2023-02-04T02:33:46;98407.50;;;5.60;70.95
49040;BME280;36811;49.732;13.402;2023-02-04T02:36:12;98407.72;;;5.58;70.84
49040;BME280;36811;49.732;13.402;2023-02-04T02:38:39;98412.19;;;5.58;70.64
49040;BME280;36811;49.732;13.402;2023-02-04T02:41:05;98430.66;;;5.58;70.73
49040;BME280;36811;49.732;13.402;2023-02-04T02:43:35;98434.72;;;5.60;71.26
49040;BME280;36811;49.732;13.402;2023-02-04T02:46:02;98436.19;;;5.43;73.01
49040;BME280;36811;49.732;13.402;2023-02-04T02:48:28;98446.97;;;5.22;73.83
49040;BME280;36811;49.732;13.402;2023-02-04T02:50:54;98469.69;;;5.03;75.04
49040;BME280;36811;49.732;13.402;2023-02-04T02:53:20;98464.44;;;4.90;76.03
49040;BME280;36811;49.732;13.402;2023-02-04T02:55:46;98491.97;;;4.81;77.78
49040;BME280;36811;49.732;13.402;2023-02-04T02:58:28;98501.09;;;4.72;78.47
49040;BME280;36811;49.732;13.402;2023-02-04T03:00:58;98517.75;;;4.12;79.54
49040;BME280;36811;49.732;13.402;2023-02-04T03:03:40;98531.03;;;3.63;82.24
49040;BME280;36811;49.732;13.402;2023-02-04T03:06:16;98537.63;;;3.46;84.02
49040;BME280;36811;49.732;13.402;2023-02-04T03:08:46;98533.72;;;3.42;85.15
49040;BME280;36811;49.732;13.402;2023-02-04T03:11:13;98551.88;;;3.37;85.45
49040;BME280;36811;49.732;13.402;2023-02-04T03:13:38;98535.88;;;3.32;86.64
49040;BME280;36811;49.732;13.402;2023-02-04T03:16:05;98562.94;;;3.26;86.42
49040;BME280;36811;49.732;13.402;2023-02-04T03:18:33;98560.69;;;3.23;86.96
49040;BME280;36811;49.732;13.402;2023-02-04T03:21:01;98561.06;;;3.20;87.17
49040;BME280;36811;49.732;13.402;2023-02-04T03:23:30;98568.69;;;3.15;85.01
49040;BME280;36811;49.732;13.402;2023-02-04T03:25:57;98579.59;;;3.12;85.24
49040;BME280;36811;49.732;13.402;2023-02-04T03:28:24;98584.59;;;3.07;83.78
49040;BME280;36811;49.732;13.402;2023-02-04T03:30:50;98588.88;;;3.08;82.56
49040;BME280;36811;49.732;13.402;2023-02-04T03:33:26;98602.00;;;3.08;81.12
49040;BME280;36811;49.732;13.402;2023-02-04T03:35:53;98607.56;;;2.98;80.92
49040;BME280;36811;49.732;13.402;2023-02-04T03:38:19;98615.25;;;3.00;79.76
49040;BME280;36811;49.732;13.402;2023-02-04T03:40:45;98632.66;;;3.01;78.45
49040;BME280;36811;49.732;13.402;2023-02-04T03:43:10;98638.28;;;2.98;78.56
49040;BME280;36811;49.732;13.402;2023-02-04T03:45:36;98646.44;;;3.03;77.04
49040;BME280;36811;49.732;13.402;2023-02-04T03:48:02;98637.16;;;3.07;76.40
49040;BME280;36811;49.732;13.402;2023-02-04T03:50:27;98669.97;;;3.11;76.19
49040;BME280;36811;49.732;13.402;2023-02-04T03:52:53;98661.06;;;3.12;75.81
49040;BME280;36811;49.732;13.402;2023-02-04T03:55:19;98670.13;;;3.09;76.45
49040;BME280;36811;49.732;13.402;2023-02-04T03:57:45;98675.13;;;3.04;76.04
49040;BME280;36811;49.732;13.402;2023-02-04T04:00:11;98691.09;;;3.03;75.57
49040;BME280;36811;49.732;13.402;2023-02-04T04:02:38;98701.72;;;2.95;76.82
49040;BME280;36811;49.732;13.402;2023-02-04T04:05:04;98706.34;;;2.93;75.97
49040;BME280;36811;49.732;13.402;2023-02-04T04:07:30;98697.75;;;2.84;74.40
49040;BME280;36811;49.732;13.402;2023-02-04T04:09:56;98716.50;;;2.81;74.61
49040;BME280;36811;49.732;13.402;2023-02-04T04:12:21;98717.59;;;2.72;73.47
49040;BME280;36811;49.732;13.402;2023-02-04T04:14:47;98708.81;;;2.80;73.07
49040;BME280;36811;49.732;13.402;2023-02-04T04:17:12;98700.47;;;2.76;71.99
49040;BME280;36811;49.732;13.402;2023-02-04T04:19:38;98722.31;;;2.77;72.27
49040;BME280;36811;49.732;13.402;2023-02-04T04:22:03;98713.81;;;2.75;71.44
49040;BME280;36811;49.732;13.402;2023-02-04T04:24:29;98731.72;;;2.71;72.35
49040;BME280;36811;49.732;13.402;2023-02-04T04:26:54;98730.47;;;2.67;71.97
49040;BME280;36811;49.732;13.402;2023-02-04T04:29:20;98738.09;;;2.62;72.65
49040;BME280;36811;49.732;13.402;2023-02-04T04:31:45;98739.47;;;2.58;72.67
49040;BME280;36811;49.732;13.402;2023-02-04T04:34:11;98753.56;;;2.57;73.20
49040;BME280;36811;49.732;13.402;2023-02-04T04:36:37;98748.78;;;2.61;72.05
49040;BME280;36811;49.732;13.402;2023-02-04T04:39:03;98757.66;;;2.60;71.91
49040;BME280;36811;49.732;13.402;2023-02-04T04:41:28;98779.47;;;2.60;71.74
49040;BME280;36811;49.732;13.402;2023-02-04T04:43:54;98782.28;;;2.73;68.99
49040;BME280;36811;49.732;13.402;2023-02-04T04:46:19;98787.28;;;2.83;70.66
49040;BME280;36811;49.732;13.402;2023-02-04T04:48:45;98796.06;;;2.90;70.02
49040;BME280;36811;49.732;13.402;2023-02-04T04:51:10;98805.19;;;2.94;68.98
49040;BME280;36811;49.732;13.402;2023-02-04T04:53:36;98807.09;;;3.00;68.26
49040;BME280;36811;49.732;13.402;2023-02-04T04:56:02;98808.19;;;3.05;68.96
49040;BME280;36811;49.732;13.402;2023-02-04T04:58:27;98806.66;;;3.11;68.36
49040;BME280;36811;49.732;13.402;2023-02-04T05:00:53;98834.19;;;3.15;69.02
49040;BME280;36811;49.732;13.402;2023-02-04T05:03:18;98837.44;;;3.17;68.36
49040;BME280;36811;49.732;13.402;2023-02-04T05:05:44;98832.19;;;3.17;68.05
49040;BME280;36811;49.732;13.402;2023-02-04T05:08:10;98855.94;;;3.24;68.59
49040;BME280;36811;49.732;13.402;2023-02-04T05:10:39;98864.72;;;3.31;68.21
49040;BME280;36811;49.732;13.402;2023-02-04T05:13:04;98853.19;;;3.32;67.98
49040;BME280;36811;49.732;13.402;2023-02-04T05:15:30;98867.38;;;3.31;67.69
49040;BME280;36811;49.732;13.402;2023-02-04T05:17:56;98866.19;;;3.33;68.10
49040;BME280;36811;49.732;13.402;2023-02-04T05:20:23;98881.88;;;3.41;68.79
49040;BME280;36811;49.732;13.402;2023-02-04T05:22:49;98882.31;;;3.45;67.69
49040;BME280;36811;49.732;13.402;2023-02-04T05:25:16;98886.03;;;3.50;68.49
49040;BME280;36811;49.732;13.402;2023-02-04T05:27:45;98895.81;;;3.42;67.46
49040;BME280;36811;49.732;13.402;2023-02-04T05:30:12;98907.25;;;3.34;67.95
49040;BME280;36811;49.732;13.402;2023-02-04T05:32:38;98905.91;;;3.24;68.31
49040;BME280;36811;49.732;13.402;2023-02-04T05:35:05;98905.25;;;3.21;67.41
49040;BME280;36811;49.732;13.402;2023-02-04T05:37:30;98911.59;;;3.27;68.07
49040;BME280;36811;49.732;13.402;2023-02-04T05:39:56;98926.75;;;3.25;68.28
49040;BME280;36811;49.732;13.402;2023-02-04T05:42:22;98926.66;;;3.18;68.86
49040;BME280;36811;49.732;13.402;2023-02-04T05:44:48;98933.72;;;3.18;68.65
49040;BME280;36811;49.732;13.402;2023-02-04T05:47:13;98935.19;;;3.20;69.19
49040;BME280;36811;49.732;13.402;2023-02-04T05:49:39;98947.16;;;3.23;69.19
49040;BME280;36811;49.732;13.402;2023-02-04T05:52:05;98951.66;;;3.29;70.21
49040;BME280;36811;49.732;13.402;2023-02-04T05:54:31;98960.56;;;3.28;69.49
49040;BME280;36811;49.732;13.402;2023-02-04T05:56:57;98969.50;;;3.19;69.62
49040;BME280;36811;49.732;13.402;2023-02-04T05:59:22;98986.09;;;3.05;68.79
49040;BME280;36811;49.732;13.402;2023-02-04T06:01:48;98987.47;;;3.15;69.39
49040;BME280;36811;49.732;13.402;2023-02-04T06:04:13;98989.50;;;3.28;69.98
49040;BME280;36811;49.732;13.402;2023-02-04T06:06:41;99000.22;;;3.41;70.51
49040;BME280;36811;49.732;13.402;2023-02-04T06:09:07;99007.91;;;3.43;69.63
49040;BME280;36811;49.732;13.402;2023-02-04T06:11:33;99010.91;;;3.40;69.56
49040;BME280;36811;49.732;13.402;2023-02-04T06:13:59;99026.13;;;3.30;69.64
49040;BME280;36811;49.732;13.402;2023-02-04T06:16:24;99030.38;;;3.16;69.35
49040;BME280;36811;49.732;13.402;2023-02-04T06:18:50;99036.88;;;3.20;69.29
49040;BME280;36811;49.732;13.402;2023-02-04T06:21:16;99037.38;;;3.24;69.57
49040;BME280;36811;49.732;13.402;2023-02-04T06:23:42;99041.72;;;3.31;68.88
49040;BME280;36811;49.732;13.402;2023-02-04T06:26:08;99044.06;;;3.26;67.06
49040;BME280;36811;49.732;13.402;2023-02-04T06:28:34;99060.75;;;3.18;66.59
49040;BME280;36811;49.732;13.402;2023-02-04T06:31:00;99077.31;;;3.19;67.18
49040;BME280;36811;49.732;13.402;2023-02-04T06:33:25;99080.94;;;3.18;67.22
49040;BME280;36811;49.732;13.402;2023-02-04T06:35:51;99089.38;;;3.13;66.65
49040;BME280;36811;49.732;13.402;2023-02-04T06:38:17;99101.69;;;3.13;66.58
49040;BME280;36811;49.732;13.402;2023-02-04T06:40:43;99101.97;;;2.73;68.88
49040;BME280;36811;49.732;13.402;2023-02-04T06:43:09;99109.78;;;2.58;69.24
49040;BME280;36811;49.732;13.402;2023-02-04T06:45:34;99111.22;;;2.61;68.27
49040;BME280;36811;49.732;13.402;2023-02-04T06:48:00;99144.34;;;2.70;68.65
49040;BME280;36811;49.732;13.402;2023-02-04T06:50:26;99154.72;;;2.63;71.65
49040;BME280;36811;49.732;13.402;2023-02-04T06:52:51;99153.38;;;2.20;74.05
49040;BME280;36811;49.732;13.402;2023-02-04T06:55:17;99149.56;;;1.76;77.03
49040;BME280;36811;49.732;13.402;2023-02-04T06:57:43;99158.75;;;1.56;76.88
49040;BME280;36811;49.732;13.402;2023-02-04T07:00:10;99161.72;;;1.37;77.84
49040;BME280;36811;49.732;13.402;2023-02-04T07:02:36;99167.56;;;1.22;78.46
49040;BME280;36811;49.732;13.402;2023-02-04T07:05:04;99174.13;;;1.18;78.77
49040;BME280;36811;49.732;13.402;2023-02-04T07:07:30;99184.63;;;1.18;79.29
49040;BME280;36811;49.732;13.402;2023-02-04T07:09:56;99183.94;;;1.24;78.70
49040;BME280;36811;49.732;13.402;2023-02-04T07:12:22;99190.03;;;1.33;78.19
49040;BME280;36811;49.732;13.402;2023-02-04T07:14:47;99196.78;;;1.44;78.94
49040;BME280;36811;49.732;13.402;2023-02-04T07:17:13;99210.03;;;1.50;78.42
49040;BME280;36811;49.732;13.402;2023-02-04T07:19:39;99222.66;;;1.55;77.63
49040;BME280;36811;49.732;13.402;2023-02-04T07:22:04;99216.94;;;1.59;76.96
49040;BME280;36811;49.732;13.402;2023-02-04T07:24:30;99223.97;;;1.59;76.19
49040;BME280;36811;49.732;13.402;2023-02-04T07:26:55;99227.25;;;1.69;75.82
49040;BME280;36811;49.732;13.402;2023-02-04T07:29:21;99239.69;;;1.75;74.42
49040;BME280;36811;49.732;13.402;2023-02-04T07:31:47;99251.53;;;1.79;73.64
49040;BME280;36811;49.732;13.402;2023-02-04T07:34:16;99263.63;;;1.80;72.50
49040;BME280;36811;49.732;13.402;2023-02-04T07:36:42;99261.69;;;1.82;71.87
49040;BME280;36811;49.732;13.402;2023-02-04T07:39:07;99252.69;;;1.84;71.54
49040;BME280;36811;49.732;13.402;2023-02-04T07:41:34;99269.56;;;1.82;71.24
49040;BME280;36811;49.732;13.402;2023-02-04T07:44:01;99271.34;;;1.73;72.14
49040;BME280;36811;49.732;13.402;2023-02-04T07:46:26;99268.25;;;1.62;73.10
49040;BME280;36811;49.732;13.402;2023-02-04T07:48:52;99272.84;;;1.76;73.40
49040;BME280;36811;49.732;13.402;2023-02-04T07:51:17;99272.84;;;1.84;73.18
49040;BME280;36811;49.732;13.402;2023-02-04T07:53:43;99280.38;;;1.71;73.68
49040;BME280;36811;49.732;13.402;2023-02-04T07:56:09;99273.81;;;1.59;74.50
49040;BME280;36811;49.732;13.402;2023-02-04T07:58:34;99279.88;;;1.59;73.98
49040;BME280;36811;49.732;13.402;2023-02-04T08:01:00;99271.34;;;1.65;73.90
49040;BME280;36811;49.732;13.402;2023-02-04T08:03:26;99289.53;;;1.59;74.46
49040;BME280;36811;49.732;13.402;2023-02-04T08:05:52;99285.47;;;1.64;74.04
49040;BME280;36811;49.732;13.402;2023-02-04T08:08:18;99287.28;;;1.72;74.62
49040;BME280;36811;49.732;13.402;2023-02-04T08:10:45;99292.16;;;1.75;74.07
49040;BME280;36811;49.732;13.402;2023-02-04T08:13:11;99294.13;;;1.73;75.11
49040;BME280;36811;49.732;13.402;2023-02-04T08:15:37;99298.22;;;1.67;74.68
49040;BME280;36811;49.732;13.402;2023-02-04T08:18:03;99305.63;;;1.72;75.03
49040;BME280;36811;49.732;13.402;2023-02-04T08:20:29;99318.72;;;1.80;74.59
49040;BME280;36811;49.732;13.402;2023-02-04T08:22:56;99322.50;;;1.77;75.52
49040;BME280;36811;49.732;13.402;2023-02-04T08:25:21;99318.41;;;1.67;75.87
49040;BME280;36811;49.732;13.402;2023-02-04T08:27:47;99328.09;;;1.74;76.14
49040;BME280;36811;49.732;13.402;2023-02-04T08:30:13;99327.59;;;1.71;76.20
49040;BME280;36811;49.732;13.402;2023-02-04T08:32:39;99347.88;;;1.61;75.85
49040;BME280;36811;49.732;13.402;2023-02-04T08:35:06;99349.06;;;1.82;75.93
49040;BME280;36811;49.732;13.402;2023-02-04T08:37:32;99353.53;;;1.82;76.39
49040;BME280;36811;49.732;13.402;2023-02-04T08:39:58;99363.47;;;1.70;76.30
49040;BME280;36811;49.732;13.402;2023-02-04T08:42:24;99362.97;;;1.59;76.13
49040;BME280;36811;49.732;13.402;2023-02-04T08:44:49;99364.31;;;1.71;76.73
49040;BME280;36811;49.732;13.402;2023-02-04T08:47:15;99369.25;;;1.98;75.96
49040;BME280;36811;49.732;13.402;2023-02-04T08:49:41;99380.91;;;1.96;75.56
49040;BME280;36811;49.732;13.402;2023-02-04T08:52:06;99372.25;;;2.51;76.15
49040;BME280;36811;49.732;13.402;2023-02-04T08:54:33;99378.03;;;3.26;74.34
49040;BME280;36811;49.732;13.402;2023-02-04T08:57:00;99382.91;;;3.68;72.93
49040;BME280;36811;49.732;13.402;2023-02-04T08:59:26;99393.63;;;3.97;71.86
49040;BME280;36811;49.732;13.402;2023-02-04T09:01:52;99397.84;;;4.29;70.09
49040;BME280;36811;49.732;13.402;2023-02-04T09:04:19;99401.88;;;4.62;68.92
49040;BME280;36811;49.732;13.402;2023-02-04T09:06:46;99406.78;;;5.17;68.94
49040;BME280;36811;49.732;13.402;2023-02-04T09:09:12;99405.97;;;5.31;67.62
49040;BME280;36811;49.732;13.402;2023-02-04T09:11:38;99418.41;;;5.52;65.62
49040;BME280;36811;49.732;13.402;2023-02-04T09:14:04;99418.22;;;5.68;65.63
49040;BME280;36811;49.732;13.402;2023-02-04T09:16:30;99424.16;;;5.55;63.61
49040;BME280;36811;49.732;13.402;2023-02-04T09:18:56;99429.88;;;5.44;58.93
49040;BME280;36811;49.732;13.402;2023-02-04T09:21:24;99436.09;;;4.85;59.16
49040;BME280;36811;49.732;13.402;2023-02-04T09:23:49;99437.66;;;4.34;59.80
49040;BME280;36811;49.732;13.402;2023-02-04T09:26:15;99443.84;;;3.49;59.16
49040;BME280;36811;49.732;13.402;2023-02-04T09:28:41;99438.50;;;3.65;60.89
49040;BME280;36811;49.732;13.402;2023-02-04T09:31:07;99449.00;;;3.73;59.17
49040;BME280;36811;49.732;13.402;2023-02-04T09:33:34;99449.03;;;4.04;58.79
49040;BME280;36811;49.732;13.402;2023-02-04T09:36:00;99443.59;;;4.73;58.94
49040;BME280;36811;49.732;13.402;2023-02-04T09:38:25;99442.72;;;5.47;57.92
49040;BME280;36811;49.732;13.402;2023-02-04T09:40:57;99451.06;;;5.95;58.23
49040;BME280;36811;49.732;13.402;2023-02-04T09:43:27;99447.50;;;6.38;56.43
49040;BME280;36811;49.732;13.402;2023-02-04T09:45:55;99461.97;;;6.21;54.48
49040;BME280;36811;49.732;13.402;2023-02-04T09:48:22;99468.66;;;5.73;51.40
49040;BME280;36811;49.732;13.402;2023-02-04T09:50:49;99478.13;;;5.24;51.03
49040;BME280;36811;49.732;13.402;2023-02-04T09:53:21;99488.41;;;4.73;52.70
49040;BME280;36811;49.732;13.402;2023-02-04T09:55:49;99490.72;;;4.23;53.27
49040;BME280;36811;49.732;13.402;2023-02-04T09:58:17;99491.97;;;4.12;51.48
49040;BME280;36811;49.732;13.402;2023-02-04T10:00:45;99495.00;;;4.24;52.19
49040;BME280;36811;49.732;13.402;2023-02-04T10:03:18;99503.44;;;4.50;51.97
49040;BME280;36811;49.732;13.402;2023-02-04T10:05:48;99521.28;;;4.40;50.26
49040;BME280;36811;49.732;13.402;2023-02-04T10:08:17;99513.63;;;4.22;52.81
49040;BME280;36811;49.732;13.402;2023-02-04T10:10:45;99509.34;;;3.74;53.85
49040;BME280;36811;49.732;13.402;2023-02-04T10:13:18;99517.00;;;4.00;51.86
49040;BME280;36811;49.732;13.402;2023-02-04T10:15:46;99532.78;;;4.08;50.63
49040;BME280;36811;49.732;13.402;2023-02-04T10:18:30;99521.38;;;4.46;51.09
49040;BME280;36811;49.732;13.402;2023-02-04T10:23:40;99522.88;;;4.94;50.69
49040;BME280;36811;49.732;13.402;2023-02-04T10:26:10;99522.56;;;4.89;51.24
49040;BME280;36811;49.732;13.402;2023-02-04T10:28:37;99527.72;;;5.43;50.88
49040;BME280;36811;49.732;13.402;2023-02-04T10:31:06;99527.34;;;5.31;49.84
49040;BME280;36811;49.732;13.402;2023-02-04T10:33:33;99525.56;;;5.75;49.98
49040;BME280;36811;49.732;13.402;2023-02-04T10:36:03;99542.94;;;5.70;50.49
49040;BME280;36811;49.732;13.402;2023-02-04T10:38:29;99542.13;;;5.69;50.69
49040;BME280;36811;49.732;13.402;2023-02-04T10:41:02;99544.94;;;4.93;48.61
49040;BME280;36811;49.732;13.402;2023-02-04T10:43:29;99534.34;;;4.56;50.40
49040;BME280;36811;49.732;13.402;2023-02-04T10:45:58;99550.69;;;4.13;50.96
49040;BME280;36811;49.732;13.402;2023-02-04T10:48:24;99553.16;;;3.59;52.54
49040;BME280;36811;49.732;13.402;2023-02-04T10:50:50;99546.06;;;3.68;52.82
49040;BME280;36811;49.732;13.402;2023-02-04T10:53:19;99558.13;;;3.46;52.96
49040;BME280;36811;49.732;13.402;2023-02-04T10:56:05;99562.75;;;3.36;55.09
49040;BME280;36811;49.732;13.402;2023-02-04T10:58:36;99557.63;;;3.43;56.95
49040;BME280;36811;49.732;13.402;2023-02-04T11:01:02;99559.44;;;2.94;59.19
49040;BME280;36811;49.732;13.402;2023-02-04T11:03:29;99559.63;;;3.00;59.82
49040;BME280;36811;49.732;13.402;2023-02-04T11:05:57;99560.44;;;2.93;59.78
49040;BME280;36811;49.732;13.402;2023-02-04T11:08:33;99554.53;;;3.15;59.18
49040;BME280;36811;49.732;13.402;2023-02-04T11:11:03;99556.28;;;3.63;59.05
49040;BME280;36811;49.732;13.402;2023-02-04T11:13:41;99556.72;;;4.29;56.98
49040;BME280;36811;49.732;13.402;2023-02-04T11:18:56;99569.44;;;5.25;52.95
49040;BME280;36811;49.732;13.402;2023-02-04T11:26:45;99547.84;;;5.44;51.13
49040;BME280;36811;49.732;13.402;2023-02-04T11:34:43;99569.91;;;6.38;50.89
49040;BME280;36811;49.732;13.402;2023-02-04T11:37:27;99557.00;;;6.86;51.64
49040;BME280;36811;49.732;13.402;2023-02-04T11:39:57;99555.88;;;6.53;50.24
49040;BME280;36811;49.732;13.402;2023-02-04T11:42:38;99570.13;;;6.58;49.01
49040;BME280;36811;49.732;13.402;2023-02-04T11:47:50;99561.00;;;6.39;49.46
49040;BME280;36811;49.732;13.402;2023-02-04T11:50:24;99563.19;;;6.21;48.19
49040;BME280;36811;49.732;13.402;2023-02-04T11:52:53;99569.56;;;6.12;46.44
49040;BME280;36811;49.732;13.402;2023-02-04T11:55:19;99566.16;;;5.60;47.66
49040;BME280;36811;49.732;13.402;2023-02-04T11:57:50;99572.03;;;6.14;48.56
49040;BME280;36811;49.732;13.402;2023-02-04T12:00:19;99573.16;;;5.82;46.44
49040;BME280;36811;49.732;13.402;2023-02-04T12:02:48;99558.84;;;5.47;48.03
49040;BME280;36811;49.732;13.402;2023-02-04T12:05:17;99566.31;;;5.96;46.07
49040;BME280;36811;49.732;13.402;2023-02-04T12:07:44;99575.91;;;5.74;46.23
49040;BME280;36811;49.732;13.402;2023-02-04T12:10:21;99575.72;;;5.24;48.59
49040;BME280;36811;49.732;13.402;2023-02-04T12:12:54;99567.94;;;5.07;47.86
49040;BME280;36811;49.732;13.402;2023-02-04T12:15:40;99582.94;;;5.07;47.14
49040;BME280;36811;49.732;13.402;2023-02-04T12:18:07;99583.25;;;4.81;49.51
49040;BME280;36811;49.732;13.402;2023-02-04T12:20:35;99589.13;;;4.91;49.22
49040;BME280;36811;49.732;13.402;2023-02-04T12:23:03;99584.50;;;4.40;48.67
49040;BME280;36811;49.732;13.402;2023-02-04T12:25:29;99580.16;;;4.16;49.33
49040;BME280;36811;49.732;13.402;2023-02-04T12:27:54;99588.47;;;3.89;49.89
49040;BME280;36811;49.732;13.402;2023-02-04T12:30:21;99588.50;;;4.59;50.54
49040;BME280;36811;49.732;13.402;2023-02-04T12:32:48;99578.19;;;5.25;48.09
49040;BME280;36811;49.732;13.402;2023-02-04T12:35:14;99578.91;;;5.56;48.55
49040;BME280;36811;49.732;13.402;2023-02-04T12:37:40;99577.50;;;6.12;46.09
49040;BME280;36811;49.732;13.402;2023-02-04T12:40:07;99585.16;;;6.22;46.55
49040;BME280;36811;49.732;13.402;2023-02-04T12:42:33;99579.34;;;6.62;48.00
49040;BME280;36811;49.732;13.402;2023-02-04T12:44:58;99579.84;;;7.08;45.60
49040;BME280;36811;49.732;13.402;2023-02-04T12:47:24;99568.31;;;7.16;44.48
49040;BME280;36811;49.732;13.402;2023-02-04T12:49:50;99565.50;;;6.81;45.51
49040;BME280;36811;49.732;13.402;2023-02-04T12:52:15;99578.63;;;6.54;45.33
49040;BME280;36811;49.732;13.402;2023-02-04T12:54:41;99575.44;;;5.56;46.07
49040;BME280;36811;49.732;13.402;2023-02-04T12:57:08;99578.53;;;4.99;47.49
49040;BME280;36811;49.732;13.402;2023-02-04T12:59:36;99584.97;;;4.43;47.68
49040;BME280;36811;49.732;13.402;2023-02-04T13:02:01;99585.97;;;3.96;48.61
49040;BME280;36811;49.732;13.402;2023-02-04T13:04:27;99585.72;;;3.66;49.12
49040;BME280;36811;49.732;13.402;2023-02-04T13:06:52;99589.69;;;3.38;49.14
49040;BME280;36811;49.732;13.402;2023-02-04T13:09:18;99579.66;;;3.50;50.26
49040;BME280;36811;49.732;13.402;2023-02-04T13:11:44;99575.19;;;3.66;49.82
49040;BME280;36811;49.732;13.402;2023-02-04T13:14:09;99585.41;;;3.61;50.39
49040;BME280;36811;49.732;13.402;2023-02-04T13:16:35;99581.06;;;3.84;50.16
49040;BME280;36811;49.732;13.402;2023-02-04T13:19:01;99584.38;;;3.87;50.66